Time;durP1;ratioP1;P1;durP2;ratioP2;P2;SDS_P1;SDS_P2;PMS_P1;PMS_P2;Temp;Humidity;BMP_temperature;BMP_pressure;BME280_temperature;BME280_humidity;BME280_pressure;Samples;Min_cycle;Max_cycle;Signal;HPM_P1;HPM_P2
2021/10/28 00:13:19;;;;;;;;;;;25.90;41.00;;;;;;5083077;28;19919;-84
2021/10/28 00:15:55;;;;;;;;;;;25.90;41.10;;;;;;5063634;28;19919;-83
2021/10/28 00:18:37;;;;;;;;;;;25.90;41.10;;;;;;5064750;28;19927;-83
2021/10/28 00:21:04;;;;;;;;;;;25.90;41.10;;;;;;5082386;28;20316;-82
2021/10/28 00:23:30;;;;;;;;;;;25.90;41.10;;;;;;5063599;28;19908;-83
2021/10/28 00:25:56;;;;;;;;;;;25.90;41.10;;;;;;5097784;28;19908;-83
2021/10/28 00:28:21;;;;;;;;;;;25.90;41.00;;;;;;5063093;28;19908;-82
2021/10/28 00:30:49;;;;;;;;;;;25.90;41.00;;;;;;5062879;28;19912;-83
2021/10/28 00:33:14;;;;;;;;;;;25.90;41.10;;;;;;5063064;28;19908;-83
2021/10/28 00:35:40;;;;;;;;;;;25.90;41.00;;;;;;5062820;28;19923;-83
2021/10/28 00:38:06;;;;;;;;;;;25.90;41.10;;;;;;5079618;28;20273;-82
2021/10/28 00:40:34;;;;;;;;;;;25.90;41.10;;;;;;5062807;28;19908;-83
2021/10/28 00:43:02;;;;;;;;;;;25.90;41.10;;;;;;5063047;28;19995;-82
2021/10/28 00:45:28;;;;;;;;;;;25.90;41.10;;;;;;5063522;28;20194;-81
2021/10/28 00:47:53;;;;;;;;;;;25.90;41.10;;;;;;5063503;28;19919;-82
2021/10/28 00:50:21;;;;;;;;;;;25.90;41.20;;;;;;5062899;28;20329;-83
2021/10/28 00:52:47;;;;;;;;;;;25.90;41.20;;;;;;5079990;28;19920;-82
2021/10/28 00:55:15;;;;;;;;;;;25.90;41.10;;;;;;5062879;28;19943;-83
2021/10/28 00:57:41;;;;;;;;;;;25.90;41.10;;;;;;5063063;28;20248;-83
2021/10/28 01:00:06;;;;;;;;;;;25.90;41.20;;;;;;5062420;28;19919;-82
2021/10/28 01:02:32;;;;;;;;;;;25.90;41.20;;;;;;5062598;28;19909;-82
2021/10/28 01:05:00;;;;;;;;;;;25.90;41.20;;;;;;5062359;28;19908;-82
2021/10/28 01:07:28;;;;;;;;;;;25.90;41.20;;;;;;5062670;28;20248;-83
2021/10/28 01:09:54;;;;;;;;;;;25.90;41.20;;;;;;5079489;28;19918;-83
2021/10/28 01:12:20;;;;;;;;;;;25.90;41.20;;;;;;5062046;28;19912;-82
2021/10/28 01:14:45;;;;;;;;;;;25.90;41.20;;;;;;5062431;28;19979;-83
2021/10/28 01:17:14;;;;;;;;;;;25.90;41.20;;;;;;5062540;28;20285;-83
2021/10/28 01:19:43;;;;;;;;;;;25.90;41.20;;;;;;5078709;28;20325;-83
2021/10/28 01:22:08;;;;;;;;;;;25.90;41.20;;;;;;5078663;28;19950;-83
2021/10/28 01:24:36;;;;;;;;;;;25.90;41.20;;;;;;5061733;28;19948;-82
2021/10/28 01:27:05;;;;;;;;;;;25.80;41.20;;;;;;5061696;28;19908;-82
2021/10/28 01:29:31;;;;;;;;;;;25.90;41.20;;;;;;5078325;28;19912;-81
2021/10/28 01:31:59;;;;;;;;;;;25.90;41.30;;;;;;5078535;28;19998;-84
2021/10/28 01:34:24;;;;;;;;;;;25.90;41.20;;;;;;5078684;28;19959;-82
2021/10/28 01:36:50;;;;;;;;;;;25.90;41.30;;;;;;5062225;28;19912;-83
2021/10/28 01:39:23;;;;;;;;;;;25.90;41.30;;;;;;5078328;28;19920;-83
2021/10/28 01:41:49;;;;;;;;;;;25.90;41.30;;;;;;5061857;28;19915;-83
2021/10/28 01:44:15;;;;;;;;;;;25.80;41.30;;;;;;5060850;28;19908;-82
2021/10/28 01:46:41;;;;;;;;;;;25.80;41.30;;;;;;5061436;28;19912;-82
2021/10/28 01:49:06;;;;;;;;;;;25.90;41.30;;;;;;5061471;28;19916;-83
2021/10/28 01:51:32;;;;;;;;;;;25.80;41.30;;;;;;5061626;28;19911;-81
2021/10/28 01:53:58;;;;;;;;;;;25.80;41.30;;;;;;5061707;28;19908;-83
2021/10/28 01:56:23;;;;;;;;;;;25.80;41.30;;;;;;5078086;28;19908;-83
2021/10/28 01:58:51;;;;;;;;;;;25.80;41.30;;;;;;5061267;28;19992;-83
2021/10/28 02:01:17;;;;;;;;;;;25.80;41.90;;;;;;5078171;28;19915;-84
2021/10/28 02:03:42;;;;;;;;;;;25.80;41.30;;;;;;5095570;28;19908;-82
2021/10/28 02:06:10;;;;;;;;;;;25.80;41.30;;;;;;5078104;28;19915;-82
2021/10/28 02:08:38;;;;;;;;;;;25.80;41.90;;;;;;5078217;28;19916;-81
2021/10/28 02:11:04;;;;;;;;;;;25.80;41.30;;;;;;5061827;28;19912;-82
2021/10/28 02:13:29;;;;;;;;;;;25.80;41.40;;;;;;5095527;28;20316;-83
2021/10/28 02:15:55;;;;;;;;;;;25.80;41.40;;;;;;5061003;28;19908;-82
2021/10/28 02:18:21;;;;;;;;;;;25.80;41.30;;;;;;5077698;28;19912;-83
2021/10/28 02:20:47;;;;;;;;;;;25.80;41.40;;;;;;5077727;28;19947;-82
2021/10/28 02:23:12;;;;;;;;;;;25.80;41.30;;;;;;5077661;28;19958;-84
2021/10/28 02:25:38;;;;;;;;;;;25.80;41.40;;;;;;5061103;28;20361;-82
2021/10/28 02:28:06;;;;;;;;;;;25.80;41.40;;;;;;5077782;28;19908;-83
2021/10/28 02:30:32;;;;;;;;;;;25.80;41.30;;;;;;5061114;28;19912;-83
2021/10/28 02:33:00;;;;;;;;;;;25.80;41.40;;;;;;5077932;28;19908;-85
2021/10/28 02:35:26;;;;;;;;;;;25.80;41.40;;;;;;5060742;28;19908;-84
2021/10/28 02:37:51;;;;;;;;;;;25.80;41.40;;;;;;5077553;28;20307;-84
2021/10/28 02:40:17;;;;;;;;;;;25.80;41.40;;;;;;5060854;28;19908;-83
2021/10/28 02:42:42;;;;;;;;;;;25.80;41.40;;;;;;5060580;28;20375;-85
2021/10/28 02:45:13;;;;;;;;;;;25.70;41.30;;;;;;5077868;28;19908;-84
2021/10/28 02:47:41;;;;;;;;;;;25.80;41.40;;;;;;5061082;28;20363;-82
2021/10/28 02:50:09;;;;;;;;;;;25.80;41.30;;;;;;5060929;28;19912;-85
2021/10/28 02:52:35;;;;;;;;;;;25.80;41.30;;;;;;5060719;28;19912;-83
2021/10/28 02:55:00;;;;;;;;;;;25.70;41.30;;;;;;5061138;28;20015;-83
2021/10/28 02:57:26;;;;;;;;;;;25.70;41.40;;;;;;5080969;28;19909;-84
2021/10/28 02:59:51;;;;;;;;;;;25.70;41.30;;;;;;5064696;28;19915;-83
2021/10/28 03:02:17;;;;;;;;;;;25.70;41.30;;;;;;5081442;28;19916;-82
2021/10/28 03:04:43;;;;;;;;;;;25.70;41.40;;;;;;5064969;28;19908;-83
2021/10/28 03:07:08;;;;;;;;;;;25.70;41.40;;;;;;5082016;28;19933;-84
2021/10/28 03:09:36;;;;;;;;;;;25.70;41.40;;;;;;5065086;28;20206;-82
2021/10/28 03:12:03;;;;;;;;;;;25.80;41.50;;;;;;5065170;28;19990;-83
2021/10/28 03:27:39;;;;;;;;;;;25.70;41.50;;;;;;5081330;28;20001;-83
2021/10/28 03:30:05;;;;;;;;;;;25.70;41.50;;;;;;5081157;28;19912;-84
2021/10/28 03:32:33;;;;;;;;;;;25.70;41.50;;;;;;5063860;28;19969;-83
2021/10/28 03:34:59;;;;;;;;;;;25.70;41.50;;;;;;5063830;28;20291;-82
2021/10/28 03:37:35;;;;;;;;;;;25.70;41.50;;;;;;5061478;28;19952;-83
2021/10/28 03:45:31;;;;;;;;;;;25.70;41.50;;;;;;5060579;28;20345;-84
2021/10/28 04:29:56;;;;;;;;;;;25.60;41.60;;;;;;5062529;28;20415;-84
2021/10/28 04:32:24;;;;;;;;;;;25.50;41.60;;;;;;5042847;28;19982;-82
2021/10/28 04:34:52;;;;;;;;;;;25.60;41.70;;;;;;5042811;28;20103;-83
2021/10/28 04:37:18;;;;;;;;;;;25.60;41.70;;;;;;5044226;28;19935;-82
2021/10/28 04:39:43;;;;;;;;;;;25.60;41.60;;;;;;5079535;28;20345;-83
2021/10/28 04:42:11;;;;;;;;;;;25.60;41.70;;;;;;5079709;28;20368;-84
2021/10/28 04:44:40;;;;;;;;;;;25.60;41.70;;;;;;5079889;28;19908;-84
2021/10/28 04:47:06;;;;;;;;;;;25.60;41.70;;;;;;5063300;28;20333;-84
2021/10/28 04:49:34;;;;;;;;;;;25.60;41.70;;;;;;5062804;28;19927;-83
2021/10/28 04:52:02;;;;;;;;;;;25.60;41.60;;;;;;5079617;28;19912;-84
2021/10/28 04:54:28;;;;;;;;;;;25.50;41.90;;;;;;5062715;28;19908;-84
2021/10/28 04:56:53;;;;;;;;;;;25.60;41.70;;;;;;5062555;28;20248;-82
2021/10/28 04:59:19;;;;;;;;;;;25.60;41.70;;;;;;5062419;28;20002;-83
2021/10/28 05:01:45;;;;;;;;;;;25.60;41.70;;;;;;5062566;28;19916;-82
2021/10/28 05:04:10;;;;;;;;;;;25.60;41.70;;;;;;5062499;28;19912;-83
2021/10/28 05:06:36;;;;;;;;;;;25.60;41.70;;;;;;5062304;28;19918;-83
2021/10/28 05:09:04;;;;;;;;;;;25.60;41.70;;;;;;5062223;28;19954;-81
2021/10/28 05:11:32;;;;;;;;;;;25.60;41.70;;;;;;5062031;28;19912;-81
2021/10/28 05:13:58;;;;;;;;;;;25.60;41.70;;;;;;5062510;28;19938;-83
2021/10/28 05:16:23;;;;;;;;;;;25.60;41.70;;;;;;5062009;28;19912;-82
2021/10/28 05:18:49;;;;;;;;;;;25.60;41.70;;;;;;5095718;28;19991;-84
2021/10/28 05:21:17;;;;;;;;;;;25.60;41.70;;;;;;5062471;28;19948;-83
2021/10/28 05:23:43;;;;;;;;;;;25.50;41.60;;;;;;5078899;28;19908;-82
2021/10/28 05:26:09;;;;;;;;;;;25.60;41.70;;;;;;5061932;28;20325;-83
2021/10/28 05:28:34;;;;;;;;;;;25.50;41.60;;;;;;5062478;28;19920;-82
2021/10/28 05:31:03;;;;;;;;;;;25.50;41.70;;;;;;5078554;28;19980;-82
2021/10/28 05:33:28;;;;;;;;;;;25.50;41.60;;;;;;5062384;28;20280;-82
2021/10/28 05:35:59;;;;;;;;;;;25.60;41.70;;;;;;5061895;28;19908;-83
2021/10/28 05:38:24;;;;;;;;;;;25.50;41.60;;;;;;5061801;28;19931;-84
2021/10/28 05:40:52;;;;;;;;;;;25.60;41.70;;;;;;5061737;28;19908;-83
2021/10/28 05:43:20;;;;;;;;;;;23.60;37.40;;;;;;5079012;28;20280;-82
2021/10/28 05:45:47;;;;;;;;;;;20.20;43.10;;;;;;5070888;28;19962;-83
2021/10/28 05:48:13;;;;;;;;;;;18.00;47.70;;;;;;5078275;28;19908;-81
2021/10/28 05:50:41;;;;;;;;;;;18.30;49.20;;;;;;5061155;28;20263;-81
2021/10/28 05:53:08;;;;;;;;;;;19.70;47.50;;;;;;5078193;28;19918;-83
2021/10/28 05:55:36;;;;;;;;;;;21.10;45.40;;;;;;5077984;28;20341;-83
2021/10/28 05:58:01;;;;;;;;;;;22.00;43.80;;;;;;5061141;28;19912;-83
2021/10/28 06:00:30;;;;;;;;;;;22.70;42.50;;;;;;5077765;28;20202;-80
2021/10/28 06:02:55;;;;;;;;;;;23.30;45.40;;;;;;5077893;28;20020;-82
2021/10/28 06:05:21;;;;;;;;;;;23.70;47.10;;;;;;5078320;28;19962;-83
2021/10/28 06:07:47;;;;;;;;;;;;;;;;;;5061017;28;19939;-85
2021/10/28 06:10:16;;;;;;;;;;;24.40;58.50;;;;;;5095791;28;19908;-83
2021/10/28 06:12:47;;;;;;;;;;;24.40;47.20;;;;;;5062024;28;19916;-86
2021/10/28 06:15:17;;;;;;;;;;;24.60;47.10;;;;;;5061920;28;20309;-83
2021/10/28 06:20:17;;;;;;;;;;;24.90;47.10;;;;;;5079354;28;19961;-82
2021/10/28 06:22:45;;;;;;;;;;;24.90;47.00;;;;;;5061225;28;19927;-87
2021/10/28 06:25:11;;;;;;;;;;;25.00;47.20;;;;;;5061171;28;19908;-83
2021/10/28 06:27:36;;;;;;;;;;;25.10;47.20;;;;;;5077753;28;19915;-86
2021/10/28 06:30:02;;;;;;;;;;;25.20;47.20;;;;;;5077881;28;19908;-82
2021/10/28 06:32:31;;;;;;;;;;;25.20;47.10;;;;;;5077649;28;19952;-82
2021/10/28 06:35:00;;;;;;;;;;;25.30;47.00;;;;;;5077762;28;19919;-83
2021/10/28 06:37:27;;;;;;;;;;;25.40;46.90;;;;;;5075261;28;19967;-82
2021/10/28 06:39:53;;;;;;;;;;;25.40;46.70;;;;;;5057558;28;19917;-83
2021/10/28 06:42:19;;;;;;;;;;;25.50;46.60;;;;;;5041049;28;19908;-83
2021/10/28 06:44:47;;;;;;;;;;;25.50;46.30;;;;;;5041200;28;19908;-85
2021/10/28 06:47:14;;;;;;;;;;;25.60;46.10;;;;;;5041497;28;20400;-86
2021/10/28 06:49:41;;;;;;;;;;;25.60;46.00;;;;;;5041237;28;20249;-85
2021/10/28 06:52:10;;;;;;;;;;;25.70;45.80;;;;;;5040848;28;20023;-82
2021/10/28 06:54:41;;;;;;;;;;;25.70;45.70;;;;;;5058036;28;19909;-85
2021/10/28 07:04:41;;;;;;;;;;;25.80;45.20;;;;;;5057454;28;19927;-81
2021/10/28 07:07:10;;;;;;;;;;;25.90;45.10;;;;;;5040851;28;20349;-82
2021/10/28 07:09:38;;;;;;;;;;;25.90;45.00;;;;;;5041114;28;19908;-80
2021/10/28 07:14:53;;;;;;;;;;;25.90;44.90;;;;;;5060551;28;19975;-84
2021/10/28 07:17:36;;;;;;;;;;;25.90;44.80;;;;;;5043045;28;20003;-83
2021/10/28 07:26:42;;;;;;;;;;;26.00;44.80;;;;;;5062008;28;19916;-82
2021/10/28 07:33:55;;;;;;;;;;;26.10;44.30;;;;;;5067045;28;19958;-84
2021/10/28 08:16:46;;;;;;;;;;;26.70;43.30;;;;;;5080867;28;20010;-82
2021/10/28 08:19:32;;;;;;;;;;;26.70;43.30;;;;;;5065753;28;20260;-84
2021/10/28 08:22:08;;;;;;;;;;;26.70;43.20;;;;;;5079883;28;20237;-83
2021/10/28 08:30:03;;;;;;;;;;;26.70;43.20;;;;;;5082686;28;19919;-83
2021/10/28 08:32:29;;;;;;;;;;;26.70;43.20;;;;;;5062993;28;19912;-85
2021/10/28 08:34:57;;;;;;;;;;;26.70;43.10;;;;;;5080016;28;19965;-82
2021/10/28 08:37:29;;;;;;;;;;;26.70;43.00;;;;;;5079945;28;19998;-84
2021/10/28 08:39:55;;;;;;;;;;;26.70;43.00;;;;;;5063753;28;19972;-85
2021/10/28 08:42:23;;;;;;;;;;;26.80;43.00;;;;;;5079750;28;20338;-85
2021/10/28 08:44:52;;;;;;;;;;;26.80;43.00;;;;;;5063416;28;20274;-82
2021/10/28 08:47:24;;;;;;;;;;;26.70;43.60;;;;;;5079632;28;20380;-84
2021/10/28 09:24:37;;;;;;;;;;;26.80;42.80;;;;;;5082308;28;20277;-82
2021/10/28 09:32:20;;;;;;;;;;;26.80;42.70;;;;;;5081643;28;20061;-85
2021/10/28 09:51:21;;;;;;;;;;;27.00;42.60;;;;;;5078669;28;19919;-83
2021/10/28 09:54:39;;;;;;;;;;;27.00;42.60;;;;;;5061377;28;19920;-81
2021/10/28 09:59:29;;;;;;;;;;;26.90;42.60;;;;;;5080648;28;20348;-80
2021/10/28 10:02:15;;;;;;;;;;;26.90;42.70;;;;;;5077818;28;20415;-82
2021/10/28 10:04:43;;;;;;;;;;;26.90;42.70;;;;;;5083806;28;20305;-82
2021/10/28 10:07:11;;;;;;;;;;;26.90;42.70;;;;;;5070017;28;19908;-81
2021/10/28 10:09:42;;;;;;;;;;;26.90;42.70;;;;;;5067965;28;19908;-84
2021/10/28 10:12:08;;;;;;;;;;;26.90;42.70;;;;;;5061074;28;19934;-84
2021/10/28 10:14:34;;;;;;;;;;;26.90;42.70;;;;;;5061766;28;20332;-84
2021/10/28 10:17:00;;;;;;;;;;;26.90;42.70;;;;;;5078349;28;19916;-88
2021/10/28 10:19:29;;;;;;;;;;;26.90;42.70;;;;;;5061959;28;20371;-83
2021/10/28 10:21:55;;;;;;;;;;;26.80;42.70;;;;;;5062023;28;19918;-85
2021/10/28 10:30:16;;;;;;;;;;;26.80;42.60;;;;;;5096276;28;19908;-82
2021/10/28 12:14:20;;;;;;;;;;;26.80;43.60;;;;;;5092008;28;20347;-83
2021/10/28 12:24:36;;;;;;;;;;;26.90;43.40;;;;;;5091313;28;20371;-86
2021/10/28 13:48:06;;;;;;;;;;;27.20;43.00;;;;;;5089228;28;19971;-80
2021/10/28 13:58:23;;;;;;;;;;;27.30;43.00;;;;;;5033512;28;20004;-83
2021/10/28 14:14:38;;;;;;;;;;;27.30;43.00;;;;;;5071409;28;19909;-82
2021/10/28 14:15:12;;;;;;;;;;;27.30;43.00;;;;;;5089158;28;19919;-81
2021/10/28 15:00:27;;;;;;;;;;;26.70;37.40;;;;;;5092840;28;19970;-84
2021/10/28 15:33:41;;;;;;;;;;;25.80;37.70;;;;;;5092576;28;19923;-85
2021/10/28 15:39:03;;;;;;;;;;;25.90;37.40;;;;;;5008459;28;19929;-83
2021/10/28 16:24:07;;;;;;;;;;;26.90;39.50;;;;;;5090933;28;20313;-82
2021/10/28 16:26:33;;;;;;;;;;;26.90;39.80;;;;;;5093437;28;20356;-80
2021/10/28 16:29:01;;;;;;;;;;;26.90;39.80;;;;;;5093318;28;19916;-79
2021/10/28 16:31:27;;;;;;;;;;;26.90;39.60;;;;;;5092949;28;19912;-83
2021/10/28 16:33:52;;;;;;;;;;;26.90;39.60;;;;;;5076104;28;19919;-80
2021/10/28 16:36:21;;;;;;;;;;;26.90;39.60;;;;;;5076558;28;19938;-81
2021/10/28 16:38:50;;;;;;;;;;;26.80;39.60;;;;;;5075661;28;19931;-81
2021/10/28 16:41:18;;;;;;;;;;;26.90;39.70;;;;;;5075940;28;19940;-82
2021/10/28 16:43:43;;;;;;;;;;;26.80;39.70;;;;;;5059235;28;20321;-81
2021/10/28 16:46:09;;;;;;;;;;;26.80;39.70;;;;;;5075943;28;19919;-84
2021/10/28 16:48:37;;;;;;;;;;;26.80;39.70;;;;;;5076422;28;19908;-83
2021/10/28 16:51:03;;;;;;;;;;;26.80;39.70;;;;;;5076129;28;19991;-81
2021/10/28 16:53:29;;;;;;;;;;;26.80;39.80;;;;;;5092950;28;19963;-81
2021/10/28 16:55:57;;;;;;;;;;;26.80;39.90;;;;;;5077219;28;19984;-81
2021/10/28 16:58:23;;;;;;;;;;;26.70;39.90;;;;;;5075668;28;20257;-80
2021/10/28 17:00:51;;;;;;;;;;;26.70;39.90;;;;;;5075820;28;19908;-78
2021/10/28 17:03:16;;;;;;;;;;;26.70;40.00;;;;;;5076633;28;19918;-82
2021/10/28 17:05:42;;;;;;;;;;;26.70;40.00;;;;;;5059374;28;19948;-81
2021/10/28 17:08:08;;;;;;;;;;;26.70;40.00;;;;;;5092586;28;19963;-80
2021/10/28 17:10:36;;;;;;;;;;;26.70;40.10;;;;;;5092557;28;20268;-82
2021/10/28 17:13:02;;;;;;;;;;;26.70;40.10;;;;;;5092643;28;19916;-81
2021/10/28 17:15:28;;;;;;;;;;;26.70;40.20;;;;;;5074600;28;19979;-81
2021/10/28 17:17:56;;;;;;;;;;;26.70;40.20;;;;;;5058894;28;19920;-80
2021/10/28 17:20:21;;;;;;;;;;;26.70;40.20;;;;;;5075049;28;19908;-83
2021/10/28 17:22:48;;;;;;;;;;;26.70;40.20;;;;;;5092501;28;20352;-80
2021/10/28 17:25:20;;;;;;;;;;;26.70;40.30;;;;;;5076025;28;19909;-82
2021/10/28 17:27:46;;;;;;;;;;;26.70;40.30;;;;;;5074848;28;19962;-83
2021/10/28 17:30:16;;;;;;;;;;;26.70;40.30;;;;;;5075778;28;19959;-82
2021/10/28 17:32:44;;;;;;;;;;;26.70;40.40;;;;;;5092241;28;19928;-85
2021/10/28 17:35:12;;;;;;;;;;;26.70;40.60;;;;;;5075968;28;20227;-83
2021/10/28 17:37:40;;;;;;;;;;;26.70;40.70;;;;;;5075936;28;19926;-84
2021/10/28 17:40:08;;;;;;;;;;;26.70;40.80;;;;;;5093122;28;19908;-84
2021/10/28 17:42:37;;;;;;;;;;;26.70;40.80;;;;;;5093158;28;19958;-85
2021/10/28 17:45:04;;;;;;;;;;;26.70;40.90;;;;;;5075988;28;19908;-87
2021/10/28 17:47:32;;;;;;;;;;;26.70;40.90;;;;;;5093082;28;19909;-82
2021/10/28 17:49:59;;;;;;;;;;;26.70;40.80;;;;;;5075236;28;19954;-82
2021/10/28 17:52:26;;;;;;;;;;;26.70;40.80;;;;;;5077225;28;19924;-83
2021/10/28 17:54:52;;;;;;;;;;;26.70;40.90;;;;;;5075902;28;19912;-84
2021/10/28 17:57:18;;;;;;;;;;;26.70;41.00;;;;;;5075505;28;20273;-84
2021/10/28 17:59:46;;;;;;;;;;;26.70;41.00;;;;;;5074952;28;20406;-84
2021/10/28 18:02:12;;;;;;;;;;;26.70;41.10;;;;;;5074643;28;20310;-82
2021/10/28 18:04:42;;;;;;;;;;;26.70;41.10;;;;;;5075481;28;20346;-83
2021/10/28 18:07:11;;;;;;;;;;;26.70;41.10;;;;;;5076546;28;19912;-83
2021/10/28 18:09:43;;;;;;;;;;;26.70;41.20;;;;;;5091971;28;19908;-80
2021/10/28 18:12:09;;;;;;;;;;;26.60;41.10;;;;;;5091256;28;20312;-83
2021/10/28 18:14:37;;;;;;;;;;;26.70;41.20;;;;;;5074684;28;20333;-83
2021/10/28 18:17:03;;;;;;;;;;;26.70;41.30;;;;;;5091999;28;19962;-82
2021/10/28 18:19:28;;;;;;;;;;;26.60;41.20;;;;;;5074992;28;19908;-86
2021/10/28 18:21:55;;;;;;;;;;;26.60;41.30;;;;;;5074833;28;20022;-84
2021/10/28 18:24:27;;;;;;;;;;;26.60;41.40;;;;;;5074544;28;19909;-83
2021/10/28 18:26:55;;;;;;;;;;;26.60;41.40;;;;;;5091388;28;19916;-85
2021/10/28 18:29:21;;;;;;;;;;;26.60;41.50;;;;;;5074879;28;20050;-83
2021/10/28 18:31:47;;;;;;;;;;;26.60;41.50;;;;;;5076860;28;19913;-83
2021/10/28 18:34:15;;;;;;;;;;;26.60;41.60;;;;;;5080220;28;19920;-82
2021/10/28 18:36:41;;;;;;;;;;;26.60;41.50;;;;;;5079703;28;19916;-86
2021/10/28 18:39:08;;;;;;;;;;;26.60;41.50;;;;;;5081351;28;19920;-83
2021/10/28 18:41:36;;;;;;;;;;;26.70;41.60;;;;;;5095188;28;19909;-81
2021/10/28 18:44:02;;;;;;;;;;;26.60;41.60;;;;;;5074463;28;20011;-83
2021/10/28 18:46:27;;;;;;;;;;;26.60;41.60;;;;;;5074203;28;19987;-81
2021/10/28 18:48:53;;;;;;;;;;;26.60;41.60;;;;;;5074608;28;19999;-85
2021/10/28 18:51:19;;;;;;;;;;;26.60;41.60;;;;;;5091133;28;19920;-84
2021/10/28 18:53:46;;;;;;;;;;;26.60;41.70;;;;;;5074206;28;19999;-85
2021/10/28 18:56:12;;;;;;;;;;;26.60;41.70;;;;;;5091072;28;19966;-85
2021/10/28 18:58:40;;;;;;;;;;;26.70;41.80;;;;;;5074179;28;19919;-84
2021/10/28 19:01:09;;;;;;;;;;;26.60;41.70;;;;;;5074230;28;19908;-84
2021/10/28 19:03:35;;;;;;;;;;;26.60;41.80;;;;;;5073775;28;20241;-84
2021/10/28 19:06:03;;;;;;;;;;;26.60;41.80;;;;;;5091127;28;19915;-86
2021/10/28 19:08:29;;;;;;;;;;;26.60;41.80;;;;;;5091520;28;20333;-81
2021/10/28 19:10:54;;;;;;;;;;;26.60;41.90;;;;;;5091828;28;19919;-81
2021/10/28 19:13:20;;;;;;;;;;;26.60;41.90;;;;;;5074514;28;19923;-85
2021/10/28 19:15:45;;;;;;;;;;;26.60;41.90;;;;;;5091138;28;20003;-86
2021/10/28 19:18:16;;;;;;;;;;;26.60;42.00;;;;;;5074220;28;20307;-88
2021/10/28 19:20:41;;;;;;;;;;;26.60;42.00;;;;;;5073658;28;20226;-87
2021/10/28 19:23:09;;;;;;;;;;;26.60;42.00;;;;;;5073702;28;19978;-85
2021/10/28 19:25:35;;;;;;;;;;;26.60;42.00;;;;;;5091071;28;19909;-80
2021/10/28 19:28:01;;;;;;;;;;;26.60;42.00;;;;;;5073910;28;19919;-81
2021/10/28 19:30:34;;;;;;;;;;;26.60;42.00;;;;;;5073955;28;19920;-80
2021/10/28 19:33:09;;;;;;;;;;;26.60;42.00;;;;;;5072697;28;19912;-87
2021/10/28 19:35:39;;;;;;;;;;;26.60;42.00;;;;;;5072548;28;20445;-81
2021/10/28 19:41:09;;;;;;;;;;;26.60;42.10;;;;;;5092671;28;19909;-81
2021/10/28 19:46:22;;;;;;;;;;;26.50;42.00;;;;;;5091996;28;19919;-82
2021/10/28 19:48:47;;;;;;;;;;;26.50;42.00;;;;;;5076793;28;20333;-82
2021/10/28 19:51:13;;;;;;;;;;;26.50;42.10;;;;;;5094077;28;19969;-80
2021/10/28 19:53:39;;;;;;;;;;;26.60;42.70;;;;;;5077209;28;19913;-83
2021/10/28 19:56:15;;;;;;;;;;;26.50;42.10;;;;;;5094301;28;19933;-85
2021/10/28 19:58:50;;;;;;;;;;;26.60;42.20;;;;;;5075678;28;19919;-81
2021/10/28 20:01:36;;;;;;;;;;;26.50;42.20;;;;;;5093645;28;20230;-82
2021/10/28 20:14:36;;;;;;;;;;;26.50;42.30;;;;;;5007733;28;20263;-80
2021/10/28 20:22:31;;;;;;;;;;;26.50;42.30;;;;;;5091149;28;20248;-81
2021/10/28 20:24:56;;;;;;;;;;;26.50;42.30;;;;;;5093485;28;19908;-83
2021/10/28 20:27:23;;;;;;;;;;;26.50;42.20;;;;;;5093623;28;19963;-85
2021/10/28 20:29:52;;;;;;;;;;;26.50;42.30;;;;;;5093376;28;19995;-80
2021/10/28 20:32:18;;;;;;;;;;;26.50;42.20;;;;;;5092820;28;20376;-80
2021/10/28 20:37:38;;;;;;;;;;;26.50;42.30;;;;;;5018303;28;19917;-84
2021/10/28 20:40:07;;;;;;;;;;;26.60;42.30;;;;;;5076266;28;19919;-81
2021/10/28 20:42:40;;;;;;;;;;;26.50;42.40;;;;;;5092810;28;19924;-81
2021/10/28 20:45:08;;;;;;;;;;;26.50;42.40;;;;;;5075434;28;19974;-85
2021/10/28 20:47:33;;;;;;;;;;;26.50;42.40;;;;;;5076007;28;19992;-84
2021/10/28 20:49:59;;;;;;;;;;;26.50;42.50;;;;;;5076067;28;19943;-82
2021/10/28 20:52:27;;;;;;;;;;;26.50;42.50;;;;;;5075959;28;19913;-87
2021/10/28 20:54:55;;;;;;;;;;;26.50;42.50;;;;;;5076135;28;19912;-80
2021/10/28 20:57:23;;;;;;;;;;;26.50;42.50;;;;;;5092746;28;19908;-85
2021/10/28 20:59:51;;;;;;;;;;;26.50;42.50;;;;;;5075955;28;19909;-83
2021/10/28 21:02:19;;;;;;;;;;;26.50;42.50;;;;;;5076751;28;19909;-81
2021/10/28 21:04:47;;;;;;;;;;;26.50;42.50;;;;;;5092527;28;20353;-87
2021/10/28 21:07:15;;;;;;;;;;;26.50;42.50;;;;;;5092506;28;20015;-84
2021/10/28 21:09:43;;;;;;;;;;;26.50;42.50;;;;;;5092419;28;19908;-83
2021/10/28 21:12:08;;;;;;;;;;;26.50;42.50;;;;;;5059115;28;19948;-86
2021/10/28 21:14:37;;;;;;;;;;;26.50;42.50;;;;;;5075533;28;19951;-87
2021/10/28 21:17:03;;;;;;;;;;;26.50;42.50;;;;;;5092427;28;19920;-87
2021/10/28 21:19:28;;;;;;;;;;;26.50;42.50;;;;;;5075596;28;20363;-80
2021/10/28 21:21:54;;;;;;;;;;;26.50;43.20;;;;;;5075510;28;19916;-86
2021/10/28 21:24:22;;;;;;;;;;;26.50;42.50;;;;;;5092373;28;19919;-81
2021/10/28 21:26:48;;;;;;;;;;;26.50;42.60;;;;;;5092069;28;20256;-85
2021/10/28 21:29:13;;;;;;;;;;;26.50;42.60;;;;;;5075234;28;20019;-82
2021/10/28 21:31:39;;;;;;;;;;;26.50;42.70;;;;;;5092225;28;19940;-82
2021/10/28 21:34:04;;;;;;;;;;;26.50;42.70;;;;;;5092375;28;20218;-82
2021/10/28 21:36:32;;;;;;;;;;;26.50;42.70;;;;;;5092386;28;19916;-82
2021/10/28 21:38:58;;;;;;;;;;;26.50;42.70;;;;;;5092018;28;19971;-86
2021/10/28 21:41:23;;;;;;;;;;;26.50;42.70;;;;;;5091987;28;19908;-81
2021/10/28 21:43:53;;;;;;;;;;;26.50;42.70;;;;;;5075075;28;19908;-82
2021/10/28 21:46:18;;;;;;;;;;;26.50;42.80;;;;;;5074669;28;20071;-82
2021/10/28 21:48:49;;;;;;;;;;;26.50;42.90;;;;;;5074831;28;20316;-82
2021/10/28 21:51:22;;;;;;;;;;;26.50;42.80;;;;;;5091576;28;19909;-80
2021/10/28 21:53:52;;;;;;;;;;;26.50;42.80;;;;;;5091029;28;20265;-81
2021/10/28 21:56:29;;;;;;;;;;;26.40;42.70;;;;;;5075079;28;19908;-83
2021/10/28 22:25:47;;;;;;;;;;;26.20;42.80;;;;;;5093941;28;19920;-82
2021/10/28 22:28:12;;;;;;;;;;;26.20;42.80;;;;;;5093590;28;19913;-84
2021/10/28 22:30:38;;;;;;;;;;;26.20;42.80;;;;;;5074822;28;20214;-84
2021/10/28 22:33:03;;;;;;;;;;;26.20;42.90;;;;;;5074226;28;20253;-82
2021/10/28 22:38:00;;;;;;;;;;;26.20;42.80;;;;;;5090947;28;19930;-84
2021/10/28 22:40:36;;;;;;;;;;;26.20;42.80;;;;;;5090885;28;19944;-82
2021/10/28 22:43:02;;;;;;;;;;;26.30;42.90;;;;;;5072681;28;20356;-82
2021/10/28 22:45:28;;;;;;;;;;;26.20;42.80;;;;;;5075150;28;20003;-87
2021/10/28 22:47:54;;;;;;;;;;;26.20;42.80;;;;;;5073903;28;19909;-84
2021/10/28 22:50:22;;;;;;;;;;;26.20;42.80;;;;;;5074541;28;19973;-85
2021/10/28 22:52:48;;;;;;;;;;;26.20;42.80;;;;;;5073618;28;19912;-83
2021/10/28 22:55:17;;;;;;;;;;;26.20;42.80;;;;;;5090919;28;19920;-80
2021/10/28 23:00:11;;;;;;;;;;;26.20;42.80;;;;;;5091060;28;19909;-86
2021/10/28 23:08:11;;;;;;;;;;;26.10;42.70;;;;;;5088431;28;20249;-84
2021/10/28 23:21:17;;;;;;;;;;;26.10;42.90;;;;;;5092487;28;20007;-82
2021/10/28 23:23:42;;;;;;;;;;;26.10;42.90;;;;;;5077844;28;20333;-84
2021/10/28 23:26:08;;;;;;;;;;;26.10;42.90;;;;;;5094891;28;19913;-85
2021/10/28 23:28:33;;;;;;;;;;;26.10;42.80;;;;;;5078146;28;20496;-82
2021/10/28 23:31:01;;;;;;;;;;;26.10;42.80;;;;;;5077400;28;19908;-83
2021/10/28 23:33:29;;;;;;;;;;;26.10;42.90;;;;;;5077296;28;19912;-84
2021/10/28 23:35:55;;;;;;;;;;;26.10;42.90;;;;;;5094540;28;19947;-82
2021/10/28 23:38:20;;;;;;;;;;;26.10;42.80;;;;;;5077222;28;19943;-83
2021/10/28 23:40:46;;;;;;;;;;;26.10;43.40;;;;;;5094461;28;19916;-84
2021/10/28 23:43:14;;;;;;;;;;;26.10;42.80;;;;;;5077376;28;20344;-84
2021/10/28 23:45:39;;;;;;;;;;;26.10;42.80;;;;;;5076828;28;19912;-81
2021/10/28 23:48:05;;;;;;;;;;;26.10;42.80;;;;;;5077459;28;20003;-81
2021/10/28 23:50:30;;;;;;;;;;;26.10;42.80;;;;;;5077329;28;19919;-84
2021/10/28 23:52:56;;;;;;;;;;;26.10;42.80;;;;;;5076942;28;20352;-83
2021/10/28 23:55:22;;;;;;;;;;;26.10;42.80;;;;;;5077150;28;19912;-81
2021/10/28 23:57:49;;;;;;;;;;;26.10;42.80;;;;;;5077907;28;19908;-84
